createdAt,value
2016-04-25T00:00:10.013Z,0
2016-04-25T00:01:10.047Z,0
2016-04-25T00:02:10.080Z,0
2016-04-25T00:03:10.098Z,0
2016-04-25T00:04:10.101Z,0
2016-04-25T00:05:10.105Z,0
2016-04-25T00:06:10.138Z,0
2016-04-25T00:07:10.140Z,0
2016-04-25T00:08:10.174Z,0
2016-04-25T00:09:10.176Z,0
2016-04-25T00:10:10.227Z,0
2016-04-25T00:11:10.230Z,0
2016-04-25T00:12:10.357Z,0
2016-04-25T00:13:10.281Z,0
2016-04-25T00:14:10.268Z,0
2016-04-25T00:15:10.303Z,0
2016-04-25T00:16:10.321Z,0
2016-04-25T00:17:10.340Z,0
2016-04-25T00:18:10.373Z,0
2016-04-25T00:19:10.375Z,0
2016-04-25T00:20:12.097Z,0
2016-04-25T00:21:10.413Z,0
2016-04-25T00:22:10.430Z,0
2016-04-25T00:23:10.439Z,0
2016-04-25T00:24:10.473Z,0
2016-04-25T00:25:10.476Z,0
2016-04-25T00:26:10.494Z,0
2016-04-25T00:27:12.325Z,0
2016-04-25T00:28:10.546Z,0
2016-04-25T00:29:10.548Z,0
2016-04-25T00:30:10.584Z,0
2016-04-25T00:31:10.586Z,0
2016-04-25T00:32:10.620Z,0
2016-04-25T00:33:10.639Z,0
2016-04-25T00:34:10.641Z,0
2016-04-25T00:35:10.675Z,0
2016-04-25T00:36:10.692Z,0
2016-04-25T00:37:10.696Z,0
2016-04-25T00:38:10.730Z,0
2016-04-25T00:39:10.748Z,0
2016-04-25T00:40:10.750Z,0
2016-04-25T00:41:10.769Z,0
2016-04-25T00:42:11.521Z,0
2016-04-25T00:43:10.759Z,0
2016-04-25T00:44:10.824Z,0
2016-04-25T00:45:10.842Z,0
2016-04-25T00:46:10.876Z,0
2016-04-25T00:47:10.880Z,0
2016-04-25T00:48:10.897Z,0
2016-04-25T00:49:10.932Z,0
2016-04-25T00:50:10.949Z,0
2016-04-25T00:51:10.952Z,0
2016-04-25T00:52:10.985Z,0
2016-04-25T00:53:10.989Z,0
2016-04-25T00:54:11.007Z,0
2016-04-25T00:55:10.869Z,0
2016-04-25T00:56:11.043Z,0
2016-04-25T00:57:11.063Z,0
2016-04-25T00:58:11.190Z,0
2016-04-25T00:59:11.099Z,0
2016-04-25T01:00:11.117Z,0
2016-04-25T01:01:11.134Z,0
2016-04-25T01:02:11.153Z,0
2016-04-25T01:03:11.173Z,0
2016-04-25T01:04:11.190Z,0
2016-04-25T01:05:11.209Z,0
2016-04-25T01:06:11.227Z,0
2016-04-25T01:07:11.245Z,0
2016-04-25T01:08:11.264Z,0
2016-04-25T01:09:11.282Z,0
2016-04-25T01:10:11.300Z,0
2016-04-25T01:11:11.318Z,0
2016-04-25T01:12:12.493Z,0
2016-04-25T01:13:11.449Z,0
2016-04-25T01:14:11.389Z,0
2016-04-25T01:15:11.391Z,0
2016-04-25T01:16:11.269Z,0
2016-04-25T01:17:11.428Z,0
2016-04-25T01:18:11.431Z,0
2016-04-25T01:19:11.465Z,0
2016-04-25T01:20:11.483Z,0
2016-04-25T01:21:11.501Z,0
2016-04-25T01:22:11.521Z,0
2016-04-25T01:23:11.538Z,0
2016-04-25T01:24:11.540Z,0
2016-04-25T01:25:11.574Z,0
2016-04-25T01:26:11.593Z,0
2016-04-25T01:27:11.112Z,0
2016-04-25T01:28:14.193Z,0
2016-04-25T01:29:11.648Z,0
2016-04-25T01:30:11.667Z,0
2016-04-25T01:31:11.670Z,0
2016-04-25T01:32:11.703Z,0
2016-04-25T01:33:11.721Z,0
2016-04-25T01:34:11.724Z,0
2016-04-25T01:35:11.758Z,0
2016-04-25T01:36:11.776Z,0
2016-04-25T01:37:11.779Z,0
2016-04-25T01:38:11.828Z,0
2016-04-25T01:39:11.816Z,0
2016-04-25T01:40:11.850Z,0
2016-04-25T01:41:11.868Z,0
2016-04-25T01:42:12.011Z,0
2016-04-25T01:43:12.966Z,0
2016-04-25T01:44:11.969Z,0
2016-04-25T01:45:11.941Z,0
2016-04-25T01:46:11.944Z,0
2016-04-25T01:47:11.963Z,0
2016-04-25T01:48:11.965Z,0
2016-04-25T01:49:11.999Z,0
2016-04-25T01:50:12.002Z,0
2016-04-25T01:51:12.035Z,0
2016-04-25T01:52:12.054Z,0
2016-04-25T01:53:12.104Z,0
2016-04-25T01:54:12.075Z,0
2016-04-25T01:55:12.109Z,0
2016-04-25T01:56:12.112Z,0
2016-04-25T01:57:11.910Z,0
2016-04-25T01:58:12.538Z,0
2016-04-25T01:59:12.182Z,0
2016-04-25T02:00:12.731Z,0
2016-04-25T02:01:12.282Z,0
2016-04-25T02:02:12.346Z,0
2016-04-25T02:03:12.240Z,0
2016-04-25T02:04:12.258Z,0
2016-04-25T02:05:12.276Z,0
2016-04-25T02:06:12.295Z,0
2016-04-25T02:07:11.579Z,0
2016-04-25T02:08:12.347Z,0
2016-04-25T02:09:12.365Z,0
2016-04-25T02:10:12.367Z,0
2016-04-25T02:11:12.449Z,0
2016-04-25T02:12:13.092Z,0
2016-04-25T02:13:12.672Z,0
2016-04-25T02:14:12.425Z,0
2016-04-25T02:15:12.475Z,0
2016-04-25T02:16:12.478Z,0
2016-04-25T02:17:12.496Z,0
2016-04-25T02:18:12.499Z,0
2016-04-25T02:19:12.579Z,0
2016-04-25T02:20:12.597Z,0
2016-04-25T02:21:12.617Z,0
2016-04-25T02:22:12.588Z,0
2016-04-25T02:23:12.605Z,0
2016-04-25T02:24:12.608Z,0
2016-04-25T02:25:12.626Z,0
2016-04-25T02:26:12.646Z,0
2016-04-25T02:27:12.664Z,0
2016-04-25T02:28:12.681Z,0
2016-04-25T02:29:12.685Z,0
2016-04-25T02:30:12.734Z,0
2016-04-25T02:31:12.737Z,0
2016-04-25T02:32:12.755Z,0
2016-04-25T02:33:12.774Z,0
2016-04-25T02:34:12.793Z,0
2016-04-25T02:35:12.795Z,0
2016-04-25T02:36:12.812Z,0
2016-04-25T02:37:12.862Z,0
2016-04-25T02:38:12.849Z,0
2016-04-25T02:39:12.867Z,0
2016-04-25T02:40:12.949Z,0
2016-04-25T02:41:12.967Z,0
2016-04-25T02:42:12.923Z,0
2016-04-25T02:43:12.659Z,0
2016-04-25T02:44:12.944Z,0
2016-04-25T02:45:12.978Z,0
2016-04-25T02:46:12.997Z,0
2016-04-25T02:47:13.014Z,0
2016-04-25T02:48:13.064Z,0
2016-04-25T02:49:13.036Z,0
2016-04-25T02:50:13.069Z,0
2016-04-25T02:51:13.072Z,0
2016-04-25T02:52:13.091Z,0
2016-04-25T02:53:13.124Z,0
2016-04-25T02:54:13.127Z,0
2016-04-25T02:55:13.145Z,0
2016-04-25T02:56:13.164Z,0
2016-04-25T02:57:13.182Z,0
2016-04-25T02:58:13.154Z,0
2016-04-25T02:59:13.219Z,0
2016-04-25T03:00:13.237Z,0
2016-04-25T03:01:13.255Z,0
2016-04-25T03:02:13.289Z,0
2016-04-25T03:03:13.277Z,0
2016-04-25T03:04:13.295Z,0
2016-04-25T03:05:13.312Z,0
2016-04-25T03:06:13.332Z,0
2016-04-25T03:07:13.365Z,0
2016-04-25T03:08:13.367Z,0
2016-04-25T03:09:13.386Z,0
2016-04-25T03:10:13.404Z,0
2016-04-25T03:11:13.439Z,0
2016-04-25T03:12:13.441Z,0
2016-04-25T03:13:13.209Z,0
2016-04-25T03:14:13.493Z,0
2016-04-25T03:15:13.511Z,0
2016-04-25T03:16:13.514Z,0
2016-04-25T03:17:13.533Z,0
2016-04-25T03:18:13.550Z,0
2016-04-25T03:19:13.570Z,0
2016-04-25T03:20:13.588Z,0
2016-04-25T03:21:13.605Z,0
2016-04-25T03:22:13.608Z,0
2016-04-25T03:23:13.642Z,0
2016-04-25T03:24:13.644Z,0
2016-04-25T03:25:13.679Z,0
2016-04-25T03:26:13.697Z,0
2016-04-25T03:27:13.700Z,0
2016-04-25T03:28:14.984Z,0
2016-04-25T03:29:13.752Z,0
2016-04-25T03:30:13.754Z,0
2016-04-25T03:31:13.757Z,0
2016-04-25T03:32:13.792Z,0
2016-04-25T03:33:13.809Z,0
2016-04-25T03:34:13.813Z,0
2016-04-25T03:35:13.831Z,4
2016-04-25T03:36:13.865Z,4
2016-04-25T03:37:13.899Z,4
2016-04-25T03:38:13.886Z,0
2016-04-25T03:39:13.904Z,0
2016-04-25T03:40:13.922Z,4
2016-04-25T03:41:13.940Z,4
2016-04-25T03:42:13.943Z,4
2016-04-25T03:43:14.212Z,8
2016-04-25T03:44:13.995Z,4
2016-04-25T03:45:14.014Z,8
2016-04-25T03:46:14.064Z,8
2016-04-25T03:47:14.051Z,8
2016-04-25T03:48:14.053Z,8
2016-04-25T03:49:14.087Z,8
2016-04-25T03:50:14.106Z,12
2016-04-25T03:51:14.108Z,12
2016-04-25T03:52:14.127Z,12
2016-04-25T03:53:14.145Z,12
2016-04-25T03:54:14.147Z,12
2016-04-25T03:55:14.182Z,12
2016-04-25T03:56:14.200Z,8
2016-04-25T03:57:14.219Z,8
2016-04-25T03:58:14.393Z,8
2016-04-25T03:59:14.238Z,12
2016-04-25T04:00:14.288Z,12
2016-04-25T04:01:14.277Z,16
2016-04-25T04:02:14.310Z,20
2016-04-25T04:03:14.328Z,28
2016-04-25T04:04:14.331Z,36
2016-04-25T04:05:14.349Z,40
2016-04-25T04:06:14.368Z,44
2016-04-25T04:07:14.385Z,44
2016-04-25T04:08:14.404Z,44
2016-04-25T04:09:14.423Z,48
2016-04-25T04:10:14.441Z,56
2016-04-25T04:11:14.443Z,60
2016-04-25T04:12:14.477Z,64
2016-04-25T04:13:14.683Z,64
2016-04-25T04:14:14.515Z,68
2016-04-25T04:15:14.517Z,72
2016-04-25T04:16:14.535Z,72
2016-04-25T04:17:14.569Z,76
2016-04-25T04:18:14.572Z,76
2016-04-25T04:19:14.590Z,76
2016-04-25T04:20:14.608Z,80
2016-04-25T04:21:13.909Z,84
2016-04-25T04:22:14.489Z,88
2016-04-25T04:23:15.429Z,92
2016-04-25T04:24:14.697Z,96
2016-04-25T04:25:14.684Z,108
2016-04-25T04:26:14.702Z,124
2016-04-25T04:27:14.722Z,140
2016-04-25T04:28:14.458Z,132
2016-04-25T04:29:15.461Z,124
2016-04-25T04:30:14.776Z,124
2016-04-25T04:31:14.794Z,124
2016-04-25T04:32:14.812Z,128
2016-04-25T04:33:14.816Z,136
2016-04-25T04:34:14.833Z,140
2016-04-25T04:35:14.852Z,156
2016-04-25T04:36:14.870Z,196
2016-04-25T04:37:14.904Z,228
2016-04-25T04:38:14.907Z,176
2016-04-25T04:39:14.925Z,144
2016-04-25T04:40:14.943Z,144
2016-04-25T04:41:14.946Z,160
2016-04-25T04:42:14.980Z,164
2016-04-25T04:43:15.076Z,160
2016-04-25T04:44:15.017Z,168
2016-04-25T04:45:15.019Z,192
2016-04-25T04:46:15.023Z,228
2016-04-25T04:47:15.056Z,240
2016-04-25T04:48:15.075Z,256
2016-04-25T04:49:15.108Z,280
2016-04-25T04:50:15.111Z,308
2016-04-25T04:51:15.129Z,328
2016-04-25T04:52:15.132Z,312
2016-04-25T04:53:15.150Z,284
2016-04-25T04:54:15.169Z,268
2016-04-25T04:55:15.202Z,268
2016-04-25T04:56:15.221Z,304
2016-04-25T04:57:15.224Z,332
2016-04-25T04:58:15.569Z,336
2016-04-25T04:59:15.260Z,308
2016-04-25T05:00:15.278Z,308
2016-04-25T05:01:15.297Z,336
2016-04-25T05:02:14.643Z,364
2016-04-25T05:03:15.349Z,380
2016-04-25T05:04:15.352Z,400
2016-04-25T05:05:15.371Z,388
2016-04-25T05:06:15.388Z,396
2016-04-25T05:07:15.391Z,456
2016-04-25T05:08:15.424Z,468
2016-04-25T05:09:15.506Z,448
2016-04-25T05:10:15.446Z,472
2016-04-25T05:11:15.480Z,468
2016-04-25T05:12:15.534Z,476
2016-04-25T05:13:15.424Z,424
2016-04-25T05:14:15.987Z,300
2016-04-25T05:15:15.549Z,240
2016-04-25T05:16:15.768Z,284
2016-04-25T05:17:15.651Z,388
2016-04-25T05:18:15.842Z,464
2016-04-25T05:19:15.876Z,472
2016-04-25T05:20:15.910Z,488
2016-04-25T05:21:15.772Z,476
2016-04-25T05:22:15.954Z,432
2016-04-25T05:23:15.869Z,400
2016-04-25T05:24:16.003Z,384
2016-04-25T05:25:16.027Z,380
2016-04-25T05:26:16.050Z,416
2016-04-25T05:27:16.055Z,496
2016-04-25T05:28:15.951Z,604
2016-04-25T05:29:16.205Z,676
2016-04-25T05:30:16.133Z,656
2016-04-25T05:31:16.137Z,580
2016-04-25T05:32:16.171Z,548
2016-04-25T05:33:16.175Z,532
2016-04-25T05:34:16.194Z,524
2016-04-25T05:35:16.073Z,512
2016-04-25T05:36:16.232Z,536
2016-04-25T05:37:16.252Z,568
2016-04-25T05:38:16.129Z,604
2016-04-25T05:39:16.273Z,612
2016-04-25T05:40:16.308Z,636
2016-04-25T05:41:16.311Z,688
2016-04-25T05:42:16.328Z,732
2016-04-25T05:43:16.629Z,772
2016-04-25T05:44:16.475Z,760
2016-04-25T05:45:16.383Z,788
2016-04-25T05:46:16.417Z,804
2016-04-25T05:47:16.420Z,728
2016-04-25T05:48:16.439Z,680
2016-04-25T05:49:16.473Z,696
2016-04-25T05:50:16.460Z,724
2016-04-25T05:51:16.493Z,744
2016-04-25T05:52:16.528Z,676
2016-04-25T05:53:16.530Z,668
2016-04-25T05:54:16.548Z,744
2016-04-25T05:55:16.552Z,828
2016-04-25T05:56:16.585Z,832
2016-04-25T05:57:16.588Z,796
2016-04-25T05:58:16.763Z,760
2016-04-25T05:59:16.515Z,728
2016-04-25T06:00:16.627Z,736
2016-04-25T06:01:16.645Z,692
2016-04-25T06:02:16.696Z,700
2016-04-25T06:03:16.698Z,744
2016-04-25T06:04:16.715Z,736
2016-04-25T06:05:16.719Z,800
2016-04-25T06:06:16.753Z,972
2016-04-25T06:07:16.756Z,1144
2016-04-25T06:08:16.774Z,1044
2016-04-25T06:09:16.792Z,928
2016-04-25T06:10:16.810Z,840
2016-04-25T06:11:16.844Z,812
2016-04-25T06:12:16.847Z,828
2016-04-25T06:13:17.803Z,800
2016-04-25T06:14:16.868Z,768
2016-04-25T06:15:16.886Z,692
2016-04-25T06:16:16.920Z,608
2016-04-25T06:17:16.939Z,572
2016-04-25T06:18:16.941Z,592
2016-04-25T06:19:16.975Z,828
2016-04-25T06:20:16.994Z,1004
2016-04-25T06:21:16.996Z,888
2016-04-25T06:22:17.046Z,980
2016-04-25T06:23:17.050Z,1044
2016-04-25T06:24:17.083Z,1100
2016-04-25T06:25:17.086Z,1164
2016-04-25T06:26:17.089Z,1116
2016-04-25T06:27:17.107Z,1068
2016-04-25T06:28:26.734Z,1000
2016-04-25T06:29:19.191Z,964
2016-04-25T06:30:18.037Z,944
2016-04-25T06:31:17.180Z,1040
2016-04-25T06:32:17.199Z,1172
2016-04-25T06:33:17.217Z,1252
2016-04-25T06:34:17.250Z,1132
2016-04-25T06:35:17.254Z,1016
2016-04-25T06:36:17.272Z,1036
2016-04-25T06:37:17.274Z,1096
2016-04-25T06:38:17.309Z,1216
2016-04-25T06:39:17.326Z,1288
2016-04-25T06:40:17.346Z,1248
2016-04-25T06:41:17.348Z,1224
2016-04-25T06:42:17.382Z,1268
2016-04-25T06:43:18.306Z,1320
2016-04-25T06:44:17.403Z,1296
2016-04-25T06:45:17.421Z,1296
2016-04-25T06:46:17.440Z,1360
2016-04-25T06:47:17.457Z,1420
2016-04-25T06:48:17.493Z,1448
2016-04-25T06:49:17.494Z,1388
2016-04-25T06:50:17.498Z,1340
2016-04-25T06:51:17.375Z,1236
2016-04-25T06:52:17.549Z,1152
2016-04-25T06:53:17.551Z,1064
2016-04-25T06:54:17.587Z,936
2016-04-25T06:55:17.589Z,768
2016-04-25T06:56:17.607Z,604
2016-04-25T06:57:17.641Z,496
2016-04-25T06:58:19.269Z,456
2016-04-25T06:59:18.787Z,496
2016-04-25T07:00:17.696Z,740
2016-04-25T07:01:17.714Z,812
2016-04-25T07:02:17.716Z,704
2016-04-25T07:03:17.735Z,504
2016-04-25T07:04:17.753Z,416
2016-04-25T07:05:17.788Z,512
2016-04-25T07:06:17.791Z,728
2016-04-25T07:07:17.793Z,940
2016-04-25T07:08:17.827Z,1052
2016-04-25T07:09:17.845Z,1108
2016-04-25T07:10:17.863Z,1172
2016-04-25T07:11:17.882Z,1208
2016-04-25T07:12:17.900Z,1264
2016-04-25T07:13:17.809Z,1312
2016-04-25T07:14:17.621Z,1372
2016-04-25T07:15:17.955Z,1392
2016-04-25T07:16:17.973Z,1356
2016-04-25T07:17:17.991Z,1272
2016-04-25T07:18:17.994Z,1248
2016-04-25T07:19:18.013Z,1348
2016-04-25T07:20:18.046Z,1488
2016-04-25T07:21:18.049Z,1508
2016-04-25T07:22:18.067Z,1456
2016-04-25T07:23:18.086Z,1456
2016-04-25T07:24:18.104Z,1512
2016-04-25T07:25:18.138Z,1528
2016-04-25T07:26:18.138Z,1468
2016-04-25T07:27:18.175Z,1488
2016-04-25T07:28:17.768Z,1492
2016-04-25T07:29:17.928Z,1456
2016-04-25T07:30:18.211Z,1440
2016-04-25T07:31:18.230Z,1460
2016-04-25T07:32:18.248Z,1480
2016-04-25T07:33:18.267Z,1472
2016-04-25T07:34:18.284Z,1508
2016-04-25T07:35:18.287Z,1656
2016-04-25T07:36:18.337Z,1696
2016-04-25T07:37:18.339Z,1532
2016-04-25T07:38:18.342Z,1204
2016-04-25T07:39:18.391Z,904
2016-04-25T07:40:18.380Z,688
2016-04-25T07:41:18.397Z,592
2016-04-25T07:42:18.447Z,576
2016-04-25T07:43:18.933Z,568
2016-04-25T07:44:18.015Z,564
2016-04-25T07:45:18.470Z,620
2016-04-25T07:46:18.489Z,648
2016-04-25T07:47:18.523Z,648
2016-04-25T07:48:18.526Z,616
2016-04-25T07:49:18.559Z,572
2016-04-25T07:50:18.577Z,552
2016-04-25T07:51:18.596Z,528
2016-04-25T07:52:18.614Z,524
2016-04-25T07:53:18.633Z,524
2016-04-25T07:54:18.651Z,560
2016-04-25T07:55:18.670Z,672
2016-04-25T07:56:18.688Z,768
2016-04-25T07:57:18.706Z,792
2016-04-25T07:58:18.020Z,804
2016-04-25T07:59:19.149Z,1124
2016-04-25T08:00:18.761Z,1532
2016-04-25T08:01:18.764Z,1616
2016-04-25T08:02:18.782Z,2248
2016-04-25T08:03:18.816Z,2596
2016-04-25T08:04:18.850Z,2448
2016-04-25T08:05:18.853Z,2012
2016-04-25T08:06:18.886Z,1316
2016-04-25T08:07:18.889Z,888
2016-04-25T08:08:18.923Z,648
2016-04-25T08:09:18.925Z,628
2016-04-25T08:10:18.928Z,696
2016-04-25T08:11:18.963Z,660
2016-04-25T08:12:18.974Z,540
2016-04-25T08:13:18.992Z,432
2016-04-25T08:14:19.042Z,404
2016-04-25T08:15:19.029Z,412
2016-04-25T08:16:19.047Z,428
2016-04-25T08:17:19.065Z,456
2016-04-25T08:18:19.100Z,500
2016-04-25T08:19:19.102Z,568
2016-04-25T08:20:19.105Z,712
2016-04-25T08:21:19.138Z,784
2016-04-25T08:22:19.204Z,796
2016-04-25T08:23:19.176Z,880
2016-04-25T08:24:19.195Z,1072
2016-04-25T08:25:19.212Z,1208
2016-04-25T08:26:19.215Z,1480
2016-04-25T08:27:19.250Z,1704
2016-04-25T08:28:20.017Z,1592
2016-04-25T08:29:19.114Z,1420
2016-04-25T08:30:19.289Z,1640
2016-04-25T08:31:19.308Z,2040
2016-04-25T08:32:19.341Z,2384
2016-04-25T08:33:19.484Z,2600
2016-04-25T08:34:21.268Z,2448
2016-04-25T08:35:19.412Z,2180
2016-04-25T08:36:19.414Z,1808
2016-04-25T08:37:19.433Z,1472
2016-04-25T08:38:19.451Z,1308
2016-04-25T08:39:19.454Z,1196
2016-04-25T08:40:19.488Z,1428
2016-04-25T08:41:19.510Z,1856
2016-04-25T08:42:19.545Z,2212
2016-04-25T08:43:19.563Z,2216
2016-04-25T08:44:20.409Z,1956
2016-04-25T08:45:19.569Z,1616
2016-04-25T08:46:19.618Z,1408
2016-04-25T08:47:19.621Z,1104
2016-04-25T08:48:19.639Z,952
2016-04-25T08:49:19.657Z,924
2016-04-25T08:50:19.676Z,972
2016-04-25T08:51:19.694Z,952
2016-04-25T08:52:19.712Z,1192
2016-04-25T08:53:19.746Z,1340
2016-04-25T08:54:19.764Z,1612
2016-04-25T08:55:19.767Z,2072
2016-04-25T08:56:19.786Z,2484
2016-04-25T08:57:19.803Z,2748
2016-04-25T08:58:19.869Z,2876
2016-04-25T08:59:20.434Z,2924
2016-04-25T09:00:19.875Z,2652
2016-04-25T09:01:19.877Z,2252
2016-04-25T09:02:19.895Z,2168
2016-04-25T09:03:19.913Z,2164
2016-04-25T09:04:19.932Z,2232
2016-04-25T09:05:20.278Z,1992
2016-04-25T09:06:19.969Z,1596
2016-04-25T09:07:20.002Z,1540
2016-04-25T09:08:20.036Z,1224
2016-04-25T09:09:20.227Z,1156
2016-04-25T09:10:20.074Z,1108
2016-04-25T09:11:20.076Z,1040
2016-04-25T09:12:20.094Z,1096
2016-04-25T09:13:19.987Z,1268
2016-04-25T09:14:20.037Z,1576
2016-04-25T09:15:20.149Z,1972
2016-04-25T09:16:20.186Z,2664
2016-04-25T09:17:20.189Z,3028
2016-04-25T09:18:20.224Z,3112
2016-04-25T09:19:20.211Z,3164
2016-04-25T09:20:20.244Z,2716
2016-04-25T09:21:20.263Z,2536
2016-04-25T09:22:20.282Z,1768
2016-04-25T09:23:20.300Z,1292
2016-04-25T09:24:20.318Z,1228
2016-04-25T09:25:20.336Z,1376
2016-04-25T09:26:20.807Z,1584
2016-04-25T09:27:20.373Z,1832
2016-04-25T09:28:20.266Z,2052
2016-04-25T09:29:22.722Z,2288
2016-04-25T09:30:19.693Z,2376
2016-04-25T09:31:20.477Z,2528
2016-04-25T09:32:20.464Z,2704
2016-04-25T09:33:20.499Z,2960
2016-04-25T09:34:20.548Z,2816
2016-04-25T09:35:20.534Z,2940
2016-04-25T09:36:20.584Z,2804
2016-04-25T09:37:20.587Z,2756
2016-04-25T09:38:20.621Z,2888
2016-04-25T09:39:21.248Z,3052
2016-04-25T09:40:20.642Z,2508
2016-04-25T09:41:20.661Z,2716
2016-04-25T09:42:20.678Z,2572
2016-04-25T09:43:20.697Z,2976
2016-04-25T09:44:21.450Z,3072
2016-04-25T09:45:20.733Z,3064
2016-04-25T09:46:20.752Z,3108
2016-04-25T09:47:20.770Z,3076
2016-04-25T09:48:20.789Z,2696
2016-04-25T09:49:22.150Z,2588
2016-04-25T09:50:20.091Z,2060
2016-04-25T09:51:20.875Z,2144
2016-04-25T09:52:20.877Z,2132
2016-04-25T09:53:20.896Z,1768
2016-04-25T09:54:20.913Z,1812
2016-04-25T09:55:20.948Z,1940
2016-04-25T09:56:20.654Z,1936
2016-04-25T09:57:21.001Z,1556
2016-04-25T09:58:21.003Z,1208
2016-04-25T09:59:20.037Z,908
2016-04-25T10:00:21.055Z,780
2016-04-25T10:01:21.090Z,712
2016-04-25T10:02:21.123Z,684
2016-04-25T10:03:21.126Z,932
2016-04-25T10:04:21.144Z,1288
2016-04-25T10:05:21.162Z,1668
2016-04-25T10:06:21.181Z,2100
2016-04-25T10:07:21.184Z,2344
2016-04-25T10:08:21.217Z,2572
2016-04-25T10:09:21.142Z,2852
2016-04-25T10:10:21.254Z,3000
2016-04-25T10:11:21.273Z,3080
2016-04-25T10:12:21.306Z,3064
2016-04-25T10:13:21.324Z,3164
2016-04-25T10:14:23.734Z,3168
2016-04-25T10:15:21.362Z,2828
2016-04-25T10:16:21.395Z,2784
2016-04-25T10:17:21.398Z,2900
2016-04-25T10:18:21.447Z,3160
2016-04-25T10:19:21.450Z,3308
2016-04-25T10:20:21.469Z,3652
2016-04-25T10:21:21.487Z,2952
2016-04-25T10:22:21.505Z,2484
2016-04-25T10:23:21.523Z,2172
2016-04-25T10:24:21.541Z,1556
2016-04-25T10:25:21.560Z,1164
2016-04-25T10:26:21.610Z,932
2016-04-25T10:27:21.628Z,828
2016-04-25T10:28:21.630Z,704
2016-04-25T10:29:24.477Z,592
2016-04-25T10:30:21.605Z,556
2016-04-25T10:31:21.739Z,572
2016-04-25T10:32:21.741Z,632
2016-04-25T10:33:21.587Z,796
2016-04-25T10:34:22.714Z,1260
2016-04-25T10:35:31.527Z,2044
2016-04-25T10:36:21.809Z,2424
2016-04-25T10:37:21.811Z,2588
2016-04-25T10:38:21.845Z,2088
2016-04-25T10:39:21.864Z,1724
2016-04-25T10:40:21.898Z,1860
2016-04-25T10:41:21.916Z,2252
2016-04-25T10:42:21.950Z,2444
2016-04-25T10:43:21.967Z,2048
2016-04-25T10:44:22.377Z,1908
2016-04-25T10:45:22.005Z,2104
2016-04-25T10:46:22.023Z,1980
2016-04-25T10:47:22.041Z,1668
2016-04-25T10:48:22.075Z,1188
2016-04-25T10:49:23.437Z,980
2016-04-25T10:50:22.112Z,1024
2016-04-25T10:51:22.146Z,1284
2016-04-25T10:52:22.149Z,1288
2016-04-25T10:53:22.197Z,1276
2016-04-25T10:54:22.200Z,1400
2016-04-25T10:55:22.249Z,1576
2016-04-25T10:56:22.269Z,1932
2016-04-25T10:57:22.302Z,2592
2016-04-25T10:58:22.305Z,2992
2016-04-25T10:59:23.807Z,3256
2016-04-25T11:00:22.327Z,2716
2016-04-25T11:01:22.360Z,3340
2016-04-25T11:02:22.379Z,4444
2016-04-25T11:03:22.428Z,3704
2016-04-25T11:04:22.431Z,2608
2016-04-25T11:05:22.434Z,1388
2016-04-25T11:06:22.467Z,1128
2016-04-25T11:07:22.485Z,928
2016-04-25T11:08:22.488Z,936
2016-04-25T11:09:22.523Z,1236
2016-04-25T11:10:22.540Z,2256
2016-04-25T11:11:22.559Z,3480
2016-04-25T11:12:22.578Z,3356
2016-04-25T11:13:22.611Z,2948
2016-04-25T11:14:22.660Z,2420
2016-04-25T11:15:22.648Z,2384
2016-04-25T11:16:22.666Z,2112
2016-04-25T11:17:22.700Z,2176
2016-04-25T11:18:22.703Z,2416
2016-04-25T11:19:22.737Z,2456
2016-04-25T11:20:22.755Z,2368
2016-04-25T11:21:22.773Z,2596
2016-04-25T11:22:22.792Z,3092
2016-04-25T11:23:22.841Z,3312
2016-04-25T11:24:22.860Z,2864
2016-04-25T11:25:22.862Z,2220
2016-04-25T11:26:22.880Z,1824
2016-04-25T11:27:22.899Z,1848
2016-04-25T11:28:22.917Z,1688
2016-04-25T11:29:22.811Z,1840
2016-04-25T11:30:22.985Z,1936
2016-04-25T11:31:22.988Z,2068
2016-04-25T11:32:23.007Z,2424
2016-04-25T11:33:23.040Z,3104
2016-04-25T11:34:23.058Z,2756
2016-04-25T11:35:23.092Z,2268
2016-04-25T11:36:23.095Z,1684
2016-04-25T11:37:23.129Z,1460
2016-04-25T11:38:23.162Z,1720
2016-04-25T11:39:23.165Z,2400
2016-04-25T11:40:30.512Z,2420
2016-04-25T11:41:23.217Z,2528
2016-04-25T11:42:23.095Z,2072
2016-04-25T11:43:23.254Z,1856
2016-04-25T11:44:23.459Z,1848
2016-04-25T11:45:23.306Z,2044
2016-04-25T11:46:23.325Z,2648
2016-04-25T11:47:23.661Z,3052
2016-04-25T11:48:23.366Z,2680
2016-04-25T11:49:23.405Z,2208
2016-04-25T11:50:23.252Z,2020
2016-04-25T11:51:23.489Z,2132
2016-04-25T11:52:23.476Z,2724
2016-04-25T11:53:23.499Z,2268
2016-04-25T11:54:23.501Z,1816
2016-04-25T11:55:23.520Z,1560
2016-04-25T11:56:24.038Z,1860
2016-04-25T11:57:23.573Z,1872
2016-04-25T11:58:23.622Z,1968
2016-04-25T11:59:24.343Z,1104
2016-04-25T12:00:23.643Z,1480
2016-04-25T12:01:23.661Z,2172
2016-04-25T12:02:23.695Z,3244
2016-04-25T12:03:23.714Z,3472
2016-04-25T12:04:23.732Z,2684
2016-04-25T12:05:23.750Z,2220
2016-04-25T12:06:23.784Z,1988
2016-04-25T12:07:23.802Z,1624
2016-04-25T12:08:23.820Z,1288
2016-04-25T12:09:23.839Z,1160
2016-04-25T12:10:23.873Z,1308
2016-04-25T12:11:23.875Z,1508
2016-04-25T12:12:23.909Z,1624
2016-04-25T12:13:23.944Z,1636
2016-04-25T12:14:24.852Z,1516
2016-04-25T12:15:23.980Z,1336
2016-04-25T12:16:23.998Z,1476
2016-04-25T12:17:24.032Z,1884
2016-04-25T12:18:24.050Z,2436
2016-04-25T12:19:24.100Z,3124
2016-04-25T12:20:24.088Z,3264
2016-04-25T12:21:24.121Z,2996
2016-04-25T12:22:24.140Z,2572
2016-04-25T12:23:24.174Z,2196
2016-04-25T12:24:24.191Z,1940
2016-04-25T12:25:24.210Z,1792
2016-04-25T12:26:24.276Z,1740
2016-04-25T12:27:24.278Z,1976
2016-04-25T12:28:24.296Z,2420
2016-04-25T12:29:23.987Z,2772
2016-04-25T12:30:24.193Z,2836
2016-04-25T12:31:24.351Z,2712
2016-04-25T12:32:24.370Z,2704
2016-04-25T12:33:24.388Z,3280
2016-04-25T12:34:24.422Z,2972
2016-04-25T12:35:24.440Z,2392
2016-04-25T12:36:24.302Z,2372
2016-04-25T12:37:24.336Z,2456
2016-04-25T12:38:24.511Z,2744
2016-04-25T12:39:24.528Z,3040
2016-04-25T12:40:24.547Z,3184
2016-04-25T12:41:24.581Z,3372
2016-04-25T12:42:24.631Z,3620
2016-04-25T12:43:24.633Z,3172
2016-04-25T12:44:25.480Z,2672
2016-04-25T12:45:24.670Z,2192
2016-04-25T12:46:24.688Z,2416
2016-04-25T12:47:24.708Z,2548
2016-04-25T12:48:24.741Z,2532
2016-04-25T12:49:24.758Z,2480
2016-04-25T12:50:24.794Z,2936
2016-04-25T12:51:24.811Z,2688
2016-04-25T12:52:24.829Z,2792
2016-04-25T12:53:24.848Z,2780
2016-04-25T12:54:24.726Z,2716
2016-04-25T12:55:24.899Z,2432
2016-04-25T12:56:24.924Z,2168
2016-04-25T12:57:24.957Z,1920
2016-04-25T12:58:24.991Z,1408
2016-04-25T12:59:25.088Z,1364
2016-04-25T13:00:25.028Z,1460
2016-04-25T13:01:25.031Z,1736
2016-04-25T13:02:25.081Z,2464
2016-04-25T13:03:25.098Z,2404
2016-04-25T13:04:25.101Z,2524
2016-04-25T13:05:25.135Z,2516
2016-04-25T13:06:25.184Z,2188
2016-04-25T13:07:25.187Z,2700
2016-04-25T13:08:25.409Z,3164
2016-04-25T13:09:25.256Z,3476
2016-04-25T13:10:25.273Z,3784
2016-04-25T13:11:25.308Z,3636
2016-04-25T13:12:25.311Z,2020
2016-04-25T13:13:25.328Z,1268
2016-04-25T13:14:26.643Z,1724
2016-04-25T13:15:25.553Z,1728
2016-04-25T13:16:25.400Z,1428
2016-04-25T13:17:25.440Z,2460
2016-04-25T13:18:25.443Z,2864
2016-04-25T13:19:25.461Z,3080
2016-04-25T13:20:25.339Z,2556
2016-04-25T13:21:25.545Z,1888
2016-04-25T13:22:25.578Z,1900
2016-04-25T13:23:25.565Z,2064
2016-04-25T13:24:25.600Z,2080
2016-04-25T13:25:25.633Z,1996
2016-04-25T13:26:25.651Z,1912
2016-04-25T13:27:25.670Z,1492
2016-04-25T13:28:25.688Z,1984
2016-04-25T13:29:25.722Z,2140
2016-04-25T13:30:25.725Z,1828
2016-04-25T13:31:25.759Z,2480
2016-04-25T13:32:25.777Z,1872
2016-04-25T13:33:25.795Z,1956
2016-04-25T13:34:25.845Z,2444
2016-04-25T13:35:25.864Z,2372
2016-04-25T13:36:25.882Z,1528
2016-04-25T13:37:25.899Z,1380
2016-04-25T13:38:25.934Z,1500
2016-04-25T13:39:26.999Z,2348
2016-04-25T13:40:26.018Z,2352
2016-04-25T13:41:26.036Z,2228
2016-04-25T13:42:26.069Z,2192
2016-04-25T13:43:26.041Z,2180
2016-04-25T13:44:25.779Z,2192
2016-04-25T13:45:29.125Z,2144
2016-04-25T13:46:26.143Z,2148
2016-04-25T13:47:26.161Z,2168
2016-04-25T13:48:26.179Z,2164
2016-04-25T13:49:26.198Z,2188
2016-04-25T13:50:26.248Z,2244